Time;durP1;ratioP1;P1;durP2;ratioP2;P2;SDS_P1;SDS_P2;PMS_P1;PMS_P2;Temp;Humidity;BMP_temperature;BMP_pressure;BME280_temperature;BME280_humidity;BME280_pressure;Samples;Min_cycle;Max_cycle;Signal;HPM_P1;HPM_P2
2022/01/14 00:01:49;;;;;;;;;;;0.50;82.20;;;;;;5090035;28;19909;-66
2022/01/14 00:06:15;;;;;;;;;;;0.40;82.00;;;;;;5110933;27;19918;-66
2022/01/14 00:08:40;;;;;;;;;;;0.30;82.50;;;;;;5110723;28;19912;-66
2022/01/14 00:11:14;;;;;;;;;;;0.10;83.10;;;;;;5091507;28;19918;-66
2022/01/14 00:16:06;;;;;;;;;;;-3276.70;83.80;;;;;;5110620;28;19935;-66
2022/01/14 00:18:31;;;;;;;;;;;-3276.70;84.30;;;;;;5110650;28;20293;-68
2022/01/14 00:20:59;;;;;;;;;;;0.00;84.00;;;;;;5110589;28;19927;-69
2022/01/14 00:23:29;;;;;;;;;;;0.00;83.90;;;;;;5110532;28;19915;-69
2022/01/14 00:34:07;;;;;;;;;;;0.10;83.60;;;;;;5110363;28;19908;-68
2022/01/14 00:36:32;;;;;;;;;;;0.30;82.80;;;;;;5092104;28;20330;-69
2022/01/14 00:40:25;;;;;;;;;;;0.50;81.90;;;;;;5110620;27;20292;-67
2022/01/14 00:43:31;;;;;;;;;;;0.50;80.30;;;;;;5110974;27;20284;-68
2022/01/14 00:45:57;;;;;;;;;;;0.40;80.00;;;;;;5110883;28;20429;-69
2022/01/14 00:48:22;;;;;;;;;;;0.30;80.60;;;;;;5111071;28;19908;-69
2022/01/14 00:50:48;;;;;;;;;;;0.10;80.90;;;;;;5110794;28;19914;-68
2022/01/14 00:53:13;;;;;;;;;;;0.00;81.80;;;;;;5110714;28;19908;-68
2022/01/14 00:55:55;;;;;;;;;;;-3276.50;84.10;;;;;;5110665;28;19955;-68
2022/01/14 01:01:04;;;;;;;;;;;-3276.30;88.10;;;;;;5110586;28;19954;-68
2022/01/14 01:03:32;;;;;;;;;;;-3276.30;88.50;;;;;;5110357;28;19947;-69
2022/01/14 01:05:58;;;;;;;;;;;-3276.30;88.60;;;;;;5110537;28;19908;-68
2022/01/14 01:08:26;;;;;;;;;;;-3276.30;88.30;;;;;;5108185;28;19914;-68
2022/01/14 01:10:52;;;;;;;;;;;-3276.40;87.50;;;;;;5088737;28;20427;-66
2022/01/14 01:13:32;;;;;;;;;;;-3276.50;87.30;;;;;;5090060;28;19948;-66
2022/01/14 01:15:57;;;;;;;;;;;-3276.70;87.10;;;;;;5089971;28;19962;-66
2022/01/14 01:18:23;;;;;;;;;;;0.00;86.30;;;;;;5089873;28;19909;-65
2022/01/14 01:20:49;;;;;;;;;;;0.10;85.30;;;;;;5088580;28;19961;-66
2022/01/14 01:23:15;;;;;;;;;;;0.00;84.70;;;;;;5089738;28;19912;-66
2022/01/14 01:25:46;;;;;;;;;;;0.00;84.10;;;;;;5088518;28;19908;-66
2022/01/14 01:28:12;;;;;;;;;;;0.00;83.60;;;;;;5089581;28;19915;-66
2022/01/14 01:30:50;;;;;;;;;;;0.00;83.30;;;;;;5089661;28;19908;-67
2022/01/14 01:33:16;;;;;;;;;;;0.00;83.20;;;;;;5089600;28;19908;-66
2022/01/14 01:35:42;;;;;;;;;;;0.00;83.20;;;;;;5089507;28;20263;-66
2022/01/14 01:38:09;;;;;;;;;;;-3276.70;83.50;;;;;;5089536;28;19916;-66
2022/01/14 01:40:35;;;;;;;;;;;-3276.70;83.70;;;;;;5089496;28;19995;-66
2022/01/14 01:43:03;;;;;;;;;;;0.00;83.70;;;;;;5087995;28;20007;-66
2022/01/14 01:45:29;;;;;;;;;;;0.10;83.70;;;;;;5089429;28;19923;-66
2022/01/14 01:47:54;;;;;;;;;;;0.20;83.60;;;;;;5089354;28;19908;-66
2022/01/14 01:50:25;;;;;;;;;;;0.20;83.10;;;;;;5089324;28;19909;-66
2022/01/14 01:52:50;;;;;;;;;;;0.10;82.90;;;;;;5087313;28;19916;-66
2022/01/14 01:55:16;;;;;;;;;;;0.00;83.30;;;;;;5075556;28;20282;-66
2022/01/14 01:57:43;;;;;;;;;;;0.00;84.10;;;;;;5075675;28;19952;-66
2022/01/14 02:00:10;;;;;;;;;;;-3276.60;85.50;;;;;;5074349;28;20029;-66
2022/01/14 02:02:36;;;;;;;;;;;-3276.60;86.00;;;;;;5074188;28;19966;-66
2022/01/14 02:05:02;;;;;;;;;;;-3276.50;85.80;;;;;;5075578;28;19912;-66
2022/01/14 02:07:28;;;;;;;;;;;-3276.40;85.40;;;;;;5074233;28;19909;-66
2022/01/14 02:09:53;;;;;;;;;;;-3276.20;86.30;;;;;;5075369;28;20381;-66
2022/01/14 02:12:19;;;;;;;;;;;-3276.20;86.50;;;;;;5075462;28;20004;-66
2022/01/14 02:23:02;;;;;;;;;;;-3276.10;86.80;;;;;;5075152;28;19962;-66
2022/01/14 02:25:29;;;;;;;;;;;-3276.10;86.90;;;;;;5073895;28;19908;-66
2022/01/14 02:28:09;;;;;;;;;;;-3276.10;87.10;;;;;;5075027;28;19908;-66
2022/01/14 02:30:38;;;;;;;;;;;-3276.20;87.50;;;;;;5075087;28;19912;-66
2022/01/14 02:33:04;;;;;;;;;;;-3276.30;87.70;;;;;;5075127;28;19909;-66
2022/01/14 02:35:30;;;;;;;;;;;-3276.40;86.80;;;;;;5074925;28;19908;-66
2022/01/14 02:37:55;;;;;;;;;;;-3276.30;86.20;;;;;;5073612;28;20393;-66
2022/01/14 02:40:22;;;;;;;;;;;-3276.10;86.10;;;;;;5074936;28;19908;-69
2022/01/14 02:42:48;;;;;;;;;;;-3276.30;87.00;;;;;;5074645;28;19921;-66
2022/01/14 02:45:15;;;;;;;;;;;-3276.50;86.90;;;;;;5073535;28;19916;-66
2022/01/14 02:47:40;;;;;;;;;;;-3276.60;87.10;;;;;;5073790;28;20368;-66
2022/01/14 02:50:13;;;;;;;;;;;0.00;87.00;;;;;;5074743;28;19908;-66
2022/01/14 02:55:16;;;;;;;;;;;0.00;87.10;;;;;;5074679;28;19909;-66
2022/01/14 02:57:43;;;;;;;;;;;0.10;86.80;;;;;;5074548;28;19919;-66
2022/01/14 03:00:09;;;;;;;;;;;0.20;86.50;;;;;;5074780;28;19912;-66
2022/01/14 03:02:36;;;;;;;;;;;0.30;86.00;;;;;;5074415;28;19912;-67
2022/01/14 03:05:01;;;;;;;;;;;0.20;85.80;;;;;;5073487;28;19999;-66
2022/01/14 03:07:27;;;;;;;;;;;0.20;85.60;;;;;;5074384;28;19948;-67
2022/01/14 03:09:53;;;;;;;;;;;0.20;85.60;;;;;;5073229;28;19931;-66
2022/01/14 03:12:18;;;;;;;;;;;0.20;85.60;;;;;;5074306;28;19912;-67
2022/01/14 03:14:45;;;;;;;;;;;0.20;85.60;;;;;;5074209;28;20361;-67
2022/01/14 03:17:11;;;;;;;;;;;0.20;85.30;;;;;;5074157;28;19936;-66
2022/01/14 03:19:36;;;;;;;;;;;0.10;85.30;;;;;;5074179;28;20255;-66
2022/01/14 03:22:19;;;;;;;;;;;0.10;85.40;;;;;;5073991;28;19917;-66
2022/01/14 03:27:11;;;;;;;;;;;0.00;85.90;;;;;;5073952;28;19908;-67
2022/01/14 03:29:37;;;;;;;;;;;0.00;85.90;;;;;;5074442;28;19909;-67
2022/01/14 03:32:03;;;;;;;;;;;0.00;85.90;;;;;;5073883;28;19908;-67
2022/01/14 03:34:32;;;;;;;;;;;0.00;85.80;;;;;;5073885;28;19909;-66
2022/01/14 03:36:57;;;;;;;;;;;0.00;85.80;;;;;;5073785;28;19909;-67
2022/01/14 03:39:23;;;;;;;;;;;0.00;86.00;;;;;;5073710;28;20255;-67
2022/01/14 03:41:49;;;;;;;;;;;0.00;86.00;;;;;;5073470;28;20015;-67
2022/01/14 03:44:14;;;;;;;;;;;-3276.70;86.20;;;;;;5073917;28;19952;-67
2022/01/14 03:46:40;;;;;;;;;;;-3276.70;86.30;;;;;;5073590;28;20435;-67
2022/01/14 03:49:06;;;;;;;;;;;-3276.70;86.60;;;;;;5072232;28;19908;-66
2022/01/14 03:53:37;;;;;;;;;;;-3276.70;86.60;;;;;;5131462;27;19918;-68
2022/01/14 03:56:02;;;;;;;;;;;-3276.70;86.50;;;;;;5112881;28;19911;-68
2022/01/14 03:58:28;;;;;;;;;;;-3276.60;86.50;;;;;;5131247;28;20369;-68
2022/01/14 04:00:54;;;;;;;;;;;-3276.60;86.50;;;;;;5131273;28;19915;-68
2022/01/14 04:03:19;;;;;;;;;;;-3276.60;86.50;;;;;;5112855;28;20003;-68
2022/01/14 04:05:45;;;;;;;;;;;-3276.50;86.40;;;;;;5131164;28;20357;-68
2022/01/14 04:08:10;;;;;;;;;;;-3276.40;86.50;;;;;;5131454;27;20341;-68
2022/01/14 04:10:36;;;;;;;;;;;-3276.40;86.60;;;;;;5151841;27;19907;-68
2022/01/14 04:13:12;;;;;;;;;;;-3276.40;86.70;;;;;;5133075;27;20261;-68
2022/01/14 04:15:38;;;;;;;;;;;-3276.40;86.80;;;;;;5151751;27;20010;-68
2022/01/14 04:18:13;;;;;;;;;;;-3276.40;86.90;;;;;;5151670;27;20377;-68
2022/01/14 04:20:39;;;;;;;;;;;-3276.40;87.00;;;;;;5151614;27;19911;-68
2022/01/14 04:23:05;;;;;;;;;;;-3276.40;87.20;;;;;;5151516;27;19946;-68
2022/01/14 04:25:31;;;;;;;;;;;-3276.40;86.90;;;;;;5132902;27;20277;-68
2022/01/14 04:27:57;;;;;;;;;;;-3276.40;87.00;;;;;;5151361;27;19915;-69
2022/01/14 04:32:19;;;;;;;;;;;-3276.30;87.50;;;;;;5110972;27;20292;-68
2022/01/14 04:34:45;;;;;;;;;;;-3276.20;87.80;;;;;;5110923;28;19999;-68
2022/01/14 04:38:45;;;;;;;;;;;-3276.20;87.90;;;;;;5110932;27;19990;-69
2022/01/14 04:41:12;;;;;;;;;;;-3276.20;88.20;;;;;;5143912;27;20398;-68
2022/01/14 04:43:38;;;;;;;;;;;-3276.10;88.10;;;;;;5110837;28;20357;-67
2022/01/14 04:48:34;;;;;;;;;;;-3276.00;88.40;;;;;;5111071;28;19908;-66
2022/01/14 04:51:00;;;;;;;;;;;-3275.90;88.80;;;;;;5143680;27;19908;-66
2022/01/14 04:53:26;;;;;;;;;;;-3275.90;89.20;;;;;;5110641;28;19914;-66
2022/01/14 04:55:52;;;;;;;;;;;-3275.80;89.50;;;;;;5110586;28;19958;-66
2022/01/14 04:58:18;;;;;;;;;;;-3275.80;89.90;;;;;;5108993;28;19912;-66
2022/01/14 05:00:43;;;;;;;;;;;-3275.80;90.00;;;;;;5110509;28;19908;-66
2022/01/14 05:07:03;;;;;;;;;;;-3275.80;90.00;;;;;;5131443;27;20284;-68
2022/01/14 05:09:38;;;;;;;;;;;-3275.90;89.50;;;;;;5124323;27;19919;-69
2022/01/14 05:12:09;;;;;;;;;;;-3275.90;89.20;;;;;;5152349;27;19908;-69
2022/01/14 05:14:35;;;;;;;;;;;-3275.90;89.20;;;;;;5151959;27;19907;-68
2022/01/14 05:17:01;;;;;;;;;;;-3275.90;89.10;;;;;;5151917;27;19930;-69
2022/01/14 05:19:27;;;;;;;;;;;-3275.90;89.00;;;;;;5151827;27;20347;-69
2022/01/14 05:21:53;;;;;;;;;;;-3275.90;88.90;;;;;;5151778;27;19912;-69
2022/01/14 05:24:18;;;;;;;;;;;-3275.90;88.90;;;;;;5151794;27;19914;-69
2022/01/14 05:26:44;;;;;;;;;;;-3275.90;89.00;;;;;;5151573;27;19923;-69
2022/01/14 05:29:09;;;;;;;;;;;-3275.90;89.30;;;;;;5151601;27;19908;-69
2022/01/14 05:31:41;;;;;;;;;;;-3275.90;89.40;;;;;;5151594;27;19914;-69
2022/01/14 05:34:47;;;;;;;;;;;-3275.90;89.40;;;;;;5111012;27;19912;-67
2022/01/14 05:40:47;;;;;;;;;;;-3276.00;89.20;;;;;;5131584;27;19912;-69
2022/01/14 05:43:12;;;;;;;;;;;-3275.90;88.70;;;;;;5131317;28;19998;-69
2022/01/14 05:45:38;;;;;;;;;;;-3275.90;88.20;;;;;;5131341;28;20089;-69
2022/01/14 05:48:04;;;;;;;;;;;-3275.90;88.30;;;;;;5131563;28;19912;-69
2022/01/14 05:50:30;;;;;;;;;;;-3275.90;88.30;;;;;;5131256;28;19960;-69
2022/01/14 05:52:55;;;;;;;;;;;-3275.90;88.50;;;;;;5131140;28;19911;-67
2022/01/14 05:56:26;;;;;;;;;;;-3275.80;88.60;;;;;;5123694;27;19916;-68
2022/01/14 05:59:48;;;;;;;;;;;-3275.90;88.90;;;;;;5119643;27;19916;-69
2022/01/14 06:02:15;;;;;;;;;;;-3275.70;88.30;;;;;;5108133;28;19918;-68
2022/01/14 06:06:30;;;;;;;;;;;-3275.70;89.50;;;;;;5089860;27;19917;-68
2022/01/14 06:08:55;;;;;;;;;;;-3275.70;89.10;;;;;;5090297;28;19912;-69
2022/01/14 06:11:21;;;;;;;;;;;-3275.80;88.80;;;;;;5073706;28;19912;-68
2022/01/14 06:13:47;;;;;;;;;;;-3275.80;88.40;;;;;;5088231;28;20283;-69
2022/01/14 06:16:12;;;;;;;;;;;-3275.90;88.30;;;;;;5076145;28;19912;-68
2022/01/14 06:18:38;;;;;;;;;;;-3275.90;88.30;;;;;;5078190;28;20309;-68
2022/01/14 06:21:04;;;;;;;;;;;-3275.80;88.30;;;;;;5069589;28;19951;-69
2022/01/14 06:36:20;;;;;;;;;;;-3275.90;88.30;;;;;;5118237;27;19924;-68
2022/01/14 06:38:46;;;;;;;;;;;-3276.10;87.80;;;;;;5117488;28;19918;-68
2022/01/14 06:41:11;;;;;;;;;;;-3276.10;87.90;;;;;;5094749;28;19916;-68
2022/01/14 06:43:37;;;;;;;;;;;-3276.10;87.80;;;;;;5112551;28;20292;-68
2022/01/14 06:47:38;;;;;;;;;;;-3276.10;87.80;;;;;;5107273;27;19922;-68
2022/01/14 06:52:43;;;;;;;;;;;-3276.10;87.90;;;;;;5127002;27;20320;-69
2022/01/14 06:55:47;;;;;;;;;;;-3276.30;87.90;;;;;;5131039;27;19918;-68
2022/01/14 06:58:13;;;;;;;;;;;-3276.40;87.60;;;;;;5130832;28;19920;-68
2022/01/14 07:00:38;;;;;;;;;;;-3276.50;87.10;;;;;;5125890;28;19911;-69
2022/01/14 07:03:04;;;;;;;;;;;-3276.60;86.80;;;;;;5118622;28;19965;-69
2022/01/14 07:05:29;;;;;;;;;;;-3276.60;86.30;;;;;;5119570;28;20003;-68
2022/01/14 07:10:01;;;;;;;;;;;-3276.70;86.10;;;;;;5142417;27;19919;-68
2022/01/14 07:12:28;;;;;;;;;;;-3276.60;85.70;;;;;;5135629;27;19963;-68
2022/01/14 07:14:54;;;;;;;;;;;-3276.50;86.00;;;;;;5134726;27;19916;-68
2022/01/14 08:05:46;;;;;;;;;;;-3276.40;86.20;;;;;;5113170;27;19916;-66
2022/01/14 08:08:12;;;;;;;;;;;0.50;87.70;;;;;;5110102;28;19919;-66
2022/01/14 08:10:37;;;;;;;;;;;0.60;87.30;;;;;;5130356;28;19917;-66
2022/01/14 08:14:33;;;;;;;;;;;0.70;86.70;;;;;;5112408;27;19916;-66
2022/01/14 08:16:59;;;;;;;;;;;0.90;85.80;;;;;;5118494;27;19912;-66
2022/01/14 08:19:24;;;;;;;;;;;1.00;85.50;;;;;;5120820;27;19918;-66
2022/01/14 08:21:50;;;;;;;;;;;1.10;84.80;;;;;;5119654;27;19911;-68
2022/01/14 08:24:15;;;;;;;;;;;1.10;84.80;;;;;;5119576;27;19956;-69
2022/01/14 08:26:41;;;;;;;;;;;1.10;84.60;;;;;;5120018;28;19908;-68
2022/01/14 08:29:07;;;;;;;;;;;1.20;84.60;;;;;;5115047;27;20015;-68
2022/01/14 08:34:10;;;;;;;;;;;1.30;84.80;;;;;;5116260;27;19912;-66
2022/01/14 08:36:35;;;;;;;;;;;1.60;84.00;;;;;;5105487;28;19912;-67
2022/01/14 08:39:01;;;;;;;;;;;1.80;83.50;;;;;;5102239;28;19920;-67
2022/01/14 08:41:30;;;;;;;;;;;1.90;82.50;;;;;;5116743;28;19920;-68
2022/01/14 08:43:59;;;;;;;;;;;2.00;82.20;;;;;;5130093;28;19908;-67
2022/01/14 08:47:30;;;;;;;;;;;2.10;81.10;;;;;;5131305;27;19911;-66
2022/01/14 08:49:55;;;;;;;;;;;2.00;82.30;;;;;;5127339;28;19915;-66
2022/01/14 08:53:33;;;;;;;;;;;2.00;83.30;;;;;;5124794;27;19916;-68
2022/01/14 08:58:58;;;;;;;;;;;2.00;83.50;;;;;;5089864;27;19946;-66
2022/01/14 09:01:23;;;;;;;;;;;2.20;83.10;;;;;;5065365;28;19913;-66
2022/01/14 09:03:49;;;;;;;;;;;2.40;83.20;;;;;;5061781;28;19917;-66
2022/01/14 09:06:14;;;;;;;;;;;2.50;82.80;;;;;;5069653;28;19967;-66
2022/01/14 09:08:40;;;;;;;;;;;2.60;80.50;;;;;;5072923;28;19912;-68
2022/01/14 09:11:07;;;;;;;;;;;2.70;80.10;;;;;;5089131;28;19913;-68
2022/01/14 09:13:33;;;;;;;;;;;2.80;80.30;;;;;;5089311;28;19909;-68
2022/01/14 09:15:59;;;;;;;;;;;2.90;80.40;;;;;;5088931;28;19966;-68
2022/01/14 09:18:24;;;;;;;;;;;3.00;79.60;;;;;;5089707;28;19913;-66
2022/01/14 09:20:50;;;;;;;;;;;3.20;79.80;;;;;;5088809;28;19908;-66
2022/01/14 09:23:23;;;;;;;;;;;3.50;79.40;;;;;;5088604;28;19965;-66
2022/01/14 09:25:48;;;;;;;;;;;3.70;78.00;;;;;;5068173;28;20321;-66
2022/01/14 09:28:14;;;;;;;;;;;3.90;76.90;;;;;;5087888;28;19963;-66
2022/01/14 09:30:39;;;;;;;;;;;3.90;76.30;;;;;;5091168;28;19912;-66
2022/01/14 09:33:06;;;;;;;;;;;3.70;75.80;;;;;;5093567;28;19920;-66
2022/01/14 09:35:32;;;;;;;;;;;3.60;76.10;;;;;;5094418;28;19908;-66
2022/01/14 09:37:58;;;;;;;;;;;3.50;76.60;;;;;;5098454;28;19924;-66
2022/01/14 09:40:23;;;;;;;;;;;3.50;75.90;;;;;;5100851;28;19950;-66
2022/01/14 09:42:50;;;;;;;;;;;3.50;76.10;;;;;;5095351;28;19939;-66
2022/01/14 09:45:16;;;;;;;;;;;3.50;76.00;;;;;;5092190;28;19959;-66
2022/01/14 09:47:42;;;;;;;;;;;3.50;76.30;;;;;;5095523;28;20015;-66
2022/01/14 09:50:08;;;;;;;;;;;3.60;76.50;;;;;;5105147;28;19954;-67
2022/01/14 09:52:35;;;;;;;;;;;3.60;76.50;;;;;;5103604;28;19973;-67
2022/01/14 09:55:01;;;;;;;;;;;3.70;76.50;;;;;;5073917;28;20354;-67
2022/01/14 09:57:26;;;;;;;;;;;3.70;76.40;;;;;;5097887;28;19920;-67
2022/01/14 09:59:52;;;;;;;;;;;3.80;76.70;;;;;;5079386;28;19961;-67
2022/01/14 10:02:32;;;;;;;;;;;3.90;76.60;;;;;;5097321;28;19916;-67
2022/01/14 10:04:57;;;;;;;;;;;4.00;76.00;;;;;;5092326;28;19923;-67
2022/01/14 10:07:23;;;;;;;;;;;4.10;75.00;;;;;;5094270;28;19908;-67
2022/01/14 10:09:55;;;;;;;;;;;4.20;74.90;;;;;;5088850;28;19951;-67
2022/01/14 10:12:21;;;;;;;;;;;4.50;72.80;;;;;;5074147;28;19915;-66
2022/01/14 10:14:56;;;;;;;;;;;4.60;72.10;;;;;;5080820;28;19916;-66
2022/01/14 10:17:23;;;;;;;;;;;4.90;72.00;;;;;;5066071;28;19986;-67
2022/01/14 10:22:39;;;;;;;;;;;5.10;69.90;;;;;;5110442;27;19916;-66
2022/01/14 10:25:06;;;;;;;;;;;5.40;66.40;;;;;;5119174;28;19912;-66
2022/01/14 10:27:33;;;;;;;;;;;5.40;65.20;;;;;;5117237;28;19916;-66
2022/01/14 10:30:17;;;;;;;;;;;5.40;66.30;;;;;;5111737;28;19998;-67
2022/01/14 10:32:44;;;;;;;;;;;5.50;66.60;;;;;;5126215;28;19954;-67
2022/01/14 10:35:10;;;;;;;;;;;5.50;65.20;;;;;;5113066;28;19919;-66
2022/01/14 10:37:36;;;;;;;;;;;5.80;64.30;;;;;;5116876;28;19962;-66
2022/01/14 10:40:21;;;;;;;;;;;6.00;62.30;;;;;;5119338;28;19908;-66
2022/01/14 10:42:48;;;;;;;;;;;6.00;62.30;;;;;;5112081;28;19973;-66
2022/01/14 10:45:18;;;;;;;;;;;5.90;61.60;;;;;;5123848;28;19919;-66
2022/01/14 10:47:50;;;;;;;;;;;5.90;61.70;;;;;;5120300;28;19912;-66
2022/01/14 10:50:15;;;;;;;;;;;5.90;63.70;;;;;;5121850;28;19955;-66
2022/01/14 10:52:48;;;;;;;;;;;6.10;64.70;;;;;;5113819;28;19940;-66
2022/01/14 10:55:26;;;;;;;;;;;6.20;64.10;;;;;;5097301;28;19975;-66
2022/01/14 10:57:51;;;;;;;;;;;6.20;62.20;;;;;;5102346;28;20348;-66
2022/01/14 11:00:20;;;;;;;;;;;6.40;61.30;;;;;;5122157;28;20003;-66
2022/01/14 11:02:48;;;;;;;;;;;6.50;61.80;;;;;;5112815;28;20128;-66
2022/01/14 11:05:17;;;;;;;;;;;6.60;60.60;;;;;;5125975;28;19908;-66
2022/01/14 11:07:44;;;;;;;;;;;6.70;61.00;;;;;;5116926;28;19915;-67
2022/01/14 11:12:19;;;;;;;;;;;6.90;59.70;;;;;;5135270;27;19912;-65
2022/01/14 11:16:36;;;;;;;;;;;6.90;57.60;;;;;;5146342;27;19911;-65
2022/01/14 11:19:03;;;;;;;;;;;7.20;59.80;;;;;;5134328;27;19999;-65
2022/01/14 11:24:23;;;;;;;;;;;7.30;58.40;;;;;;5143414;27;20276;-65
2022/01/14 11:26:49;;;;;;;;;;;7.40;58.00;;;;;;5134093;27;20037;-65
2022/01/14 11:29:16;;;;;;;;;;;7.60;57.80;;;;;;5147035;27;19977;-65
2022/01/14 11:31:42;;;;;;;;;;;7.80;56.90;;;;;;5119506;27;19911;-65
2022/01/14 11:34:09;;;;;;;;;;;7.90;56.80;;;;;;5120400;28;19908;-66
2022/01/14 11:37:07;;;;;;;;;;;8.00;56.70;;;;;;5145942;27;19961;-66
2022/01/14 11:39:34;;;;;;;;;;;8.40;56.20;;;;;;5099513;27;19907;-67
2022/01/14 11:42:02;;;;;;;;;;;8.80;54.90;;;;;;5140162;27;19908;-66
2022/01/14 11:44:43;;;;;;;;;;;9.10;54.50;;;;;;5144920;27;20014;-66
2022/01/14 11:47:36;;;;;;;;;;;9.40;53.80;;;;;;5133735;27;19908;-66
2022/01/14 11:52:38;;;;;;;;;;;9.90;53.00;;;;;;5125467;27;20262;-66
2022/01/14 11:55:24;;;;;;;;;;;10.40;49.30;;;;;;5113403;28;19912;-66
2022/01/14 11:57:50;;;;;;;;;;;10.50;48.90;;;;;;5121392;28;20353;-66
2022/01/14 12:00:29;;;;;;;;;;;10.90;48.30;;;;;;5122759;28;19912;-66
2022/01/14 12:02:56;;;;;;;;;;;11.20;46.20;;;;;;5113534;28;19919;-66
2022/01/14 12:05:23;;;;;;;;;;;11.40;46.10;;;;;;5125425;28;19962;-66
2022/01/14 12:08:01;;;;;;;;;;;11.60;45.30;;;;;;5119126;28;19957;-66
2022/01/14 12:10:59;;;;;;;;;;;11.90;44.70;;;;;;5116097;28;19919;-66
2022/01/14 12:13:48;;;;;;;;;;;11.90;44.50;;;;;;5099301;28;19915;-66
2022/01/14 12:16:24;;;;;;;;;;;12.40;44.10;;;;;;5117306;28;19919;-66
2022/01/14 12:19:00;;;;;;;;;;;12.60;43.00;;;;;;5125356;28;19908;-66
2022/01/14 12:21:41;;;;;;;;;;;13.10;41.60;;;;;;5115003;28;19908;-66
2022/01/14 12:24:19;;;;;;;;;;;13.60;41.00;;;;;;5129705;28;19907;-66
2022/01/14 12:27:07;;;;;;;;;;;14.20;39.30;;;;;;5128676;28;19907;-66
2022/01/14 12:29:40;;;;;;;;;;;14.90;39.60;;;;;;5130391;28;20180;-66
2022/01/14 12:32:12;;;;;;;;;;;15.70;37.40;;;;;;5130316;28;19916;-66
2022/01/14 12:34:39;;;;;;;;;;;16.40;35.20;;;;;;5130695;27;19908;-66
2022/01/14 12:37:05;;;;;;;;;;;16.80;34.00;;;;;;5128955;28;19965;-66
2022/01/14 12:39:31;;;;;;;;;;;16.60;32.90;;;;;;5128981;28;20276;-66
2022/01/14 12:41:57;;;;;;;;;;;16.40;33.50;;;;;;5130293;28;19915;-66
2022/01/14 12:44:24;;;;;;;;;;;16.30;34.30;;;;;;5130585;28;20044;-65
2022/01/14 12:46:59;;;;;;;;;;;16.10;34.50;;;;;;5128841;27;19922;-65
2022/01/14 12:49:26;;;;;;;;;;;15.70;34.60;;;;;;5128825;28;19916;-65
2022/01/14 12:52:04;;;;;;;;;;;15.60;34.10;;;;;;5100382;28;19927;-65
2022/01/14 12:54:33;;;;;;;;;;;15.50;34.30;;;;;;5088263;28;19971;-65
2022/01/14 12:56:59;;;;;;;;;;;15.30;34.10;;;;;;5088319;28;19909;-65
2022/01/14 12:59:25;;;;;;;;;;;15.60;35.20;;;;;;5090798;28;19918;-65
2022/01/14 13:01:52;;;;;;;;;;;15.40;36.70;;;;;;5088244;28;20370;-65
2022/01/14 13:04:18;;;;;;;;;;;15.50;36.80;;;;;;5076296;28;19991;-66
2022/01/14 13:06:46;;;;;;;;;;;15.90;35.70;;;;;;5075183;28;19915;-65
2022/01/14 13:09:17;;;;;;;;;;;16.20;35.20;;;;;;5083936;28;19917;-66
2022/01/14 13:11:50;;;;;;;;;;;16.40;35.50;;;;;;5108287;28;19912;-65
2022/01/14 13:14:22;;;;;;;;;;;16.80;35.30;;;;;;5095529;28;19919;-65
2022/01/14 13:16:49;;;;;;;;;;;17.50;34.10;;;;;;5086940;28;19977;-65
2022/01/14 13:19:20;;;;;;;;;;;17.60;34.40;;;;;;5089356;28;20333;-65
2022/01/14 13:21:46;;;;;;;;;;;17.60;34.50;;;;;;5105595;28;19962;-65
2022/01/14 13:24:38;;;;;;;;;;;17.30;33.90;;;;;;5108967;28;19955;-65
2022/01/14 13:27:08;;;;;;;;;;;17.10;35.90;;;;;;5101534;28;19932;-65
2022/01/14 13:29:44;;;;;;;;;;;16.80;36.10;;;;;;5084375;28;19927;-65
2022/01/14 13:32:11;;;;;;;;;;;16.60;36.80;;;;;;5098856;27;19939;-65
2022/01/14 13:34:36;;;;;;;;;;;16.70;36.70;;;;;;5092065;28;20359;-65
2022/01/14 13:37:02;;;;;;;;;;;16.80;35.60;;;;;;5080801;28;19912;-66
2022/01/14 13:39:28;;;;;;;;;;;16.80;35.70;;;;;;5098648;28;19912;-66
2022/01/14 13:41:54;;;;;;;;;;;16.90;35.80;;;;;;5092104;28;20006;-67
2022/01/14 13:44:27;;;;;;;;;;;17.10;34.60;;;;;;5103545;28;19912;-67
2022/01/14 13:47:00;;;;;;;;;;;17.30;34.40;;;;;;5084582;28;19912;-68
2022/01/14 13:49:25;;;;;;;;;;;17.40;34.00;;;;;;5091884;28;20001;-67
2022/01/14 13:52:01;;;;;;;;;;;17.10;34.30;;;;;;5091961;28;20397;-68
2022/01/14 13:54:27;;;;;;;;;;;17.30;34.20;;;;;;5079634;28;19912;-68
2022/01/14 13:56:52;;;;;;;;;;;17.20;34.90;;;;;;5094075;28;19953;-68
2022/01/14 13:59:21;;;;;;;;;;;17.70;32.90;;;;;;5083612;28;20293;-68
2022/01/14 14:01:53;;;;;;;;;;;17.60;32.60;;;;;;5108247;28;19907;-68
2022/01/14 14:04:26;;;;;;;;;;;17.70;32.70;;;;;;5099452;28;19999;-67
2022/01/14 14:07:03;;;;;;;;;;;17.40;33.20;;;;;;5090482;28;20381;-69
2022/01/14 14:09:34;;;;;;;;;;;17.20;32.60;;;;;;5098452;28;19958;-67
2022/01/14 14:12:26;;;;;;;;;;;17.00;32.20;;;;;;5090639;28;19963;-67
2022/01/14 14:17:37;;;;;;;;;;;16.90;31.80;;;;;;5105891;28;19957;-66
2022/01/14 14:20:03;;;;;;;;;;;16.70;32.50;;;;;;5094571;28;19981;-66
2022/01/14 14:22:30;;;;;;;;;;;16.90;32.10;;;;;;5082767;28;20354;-65
2022/01/14 14:28:00;;;;;;;;;;;16.90;32.20;;;;;;5083192;28;19931;-65
2022/01/14 14:30:31;;;;;;;;;;;16.30;32.80;;;;;;5082986;28;19919;-66
2022/01/14 14:32:57;;;;;;;;;;;16.50;34.70;;;;;;5099888;28;19918;-64
2022/01/14 14:35:23;;;;;;;;;;;16.60;33.20;;;;;;5083023;28;19999;-64
2022/01/14 14:37:51;;;;;;;;;;;16.30;34.00;;;;;;5086697;28;20157;-65
2022/01/14 14:40:20;;;;;;;;;;;16.30;34.60;;;;;;5089956;28;19955;-64
2022/01/14 14:42:47;;;;;;;;;;;16.00;34.90;;;;;;5081424;28;20415;-64
2022/01/14 14:45:13;;;;;;;;;;;16.00;35.60;;;;;;5099481;28;20281;-64
2022/01/14 14:47:39;;;;;;;;;;;15.60;36.30;;;;;;5090146;28;19938;-65
2022/01/14 14:50:05;;;;;;;;;;;15.80;36.30;;;;;;5103776;28;19925;-65
2022/01/14 14:52:31;;;;;;;;;;;16.40;34.20;;;;;;5090383;28;20010;-65
2022/01/14 14:54:57;;;;;;;;;;;16.50;34.60;;;;;;5084324;28;19924;-65
2022/01/14 14:57:23;;;;;;;;;;;16.60;34.10;;;;;;5087961;28;20043;-65
2022/01/14 14:59:48;;;;;;;;;;;17.30;33.30;;;;;;5083451;28;20007;-65
2022/01/14 15:02:15;;;;;;;;;;;17.70;31.80;;;;;;5087945;28;19965;-65
2022/01/14 15:04:43;;;;;;;;;;;18.00;31.00;;;;;;5087154;28;20014;-65
2022/01/14 15:07:09;;;;;;;;;;;18.10;31.40;;;;;;5082042;28;20297;-65
2022/01/14 15:09:35;;;;;;;;;;;17.60;31.80;;;;;;5086240;28;19916;-65
2022/01/14 15:12:03;;;;;;;;;;;15.40;35.20;;;;;;5088616;28;19916;-65
2022/01/14 15:14:29;;;;;;;;;;;14.40;37.50;;;;;;5085657;28;19963;-64
2022/01/14 15:19:29;;;;;;;;;;;14.30;38.00;;;;;;5092386;28;20280;-64
2022/01/14 15:21:55;;;;;;;;;;;13.90;38.80;;;;;;5091342;28;19916;-64
2022/01/14 15:24:20;;;;;;;;;;;13.50;40.00;;;;;;5096704;28;19912;-64
2022/01/14 15:26:46;;;;;;;;;;;13.30;40.70;;;;;;5091473;28;20274;-64
2022/01/14 15:29:12;;;;;;;;;;;13.30;40.60;;;;;;5090578;28;20382;-65
2022/01/14 15:31:37;;;;;;;;;;;13.40;40.30;;;;;;5076119;28;19963;-64
2022/01/14 15:34:03;;;;;;;;;;;13.00;41.40;;;;;;5089990;28;19954;-65
2022/01/14 15:36:29;;;;;;;;;;;12.80;41.80;;;;;;5099486;28;19930;-64
2022/01/14 15:38:54;;;;;;;;;;;12.60;42.20;;;;;;5099303;28;19986;-64
2022/01/14 15:41:20;;;;;;;;;;;12.60;42.40;;;;;;5084226;28;19912;-64
2022/01/14 15:43:46;;;;;;;;;;;12.20;43.00;;;;;;5087339;28;20286;-64
2022/01/14 15:46:11;;;;;;;;;;;11.60;44.20;;;;;;5092974;28;19911;-65
2022/01/14 15:48:37;;;;;;;;;;;10.80;45.90;;;;;;5098986;28;19954;-64
2022/01/14 15:51:02;;;;;;;;;;;10.40;47.10;;;;;;5088496;28;19920;-64
2022/01/14 15:53:28;;;;;;;;;;;10.20;47.60;;;;;;5106619;28;19943;-64
2022/01/14 15:55:54;;;;;;;;;;;10.20;48.10;;;;;;5091553;28;19989;-64
2022/01/14 15:58:20;;;;;;;;;;;9.90;49.30;;;;;;5102848;28;19911;-64
2022/01/14 16:00:46;;;;;;;;;;;9.70;49.50;;;;;;5096899;28;19958;-64
2022/01/14 16:03:11;;;;;;;;;;;9.50;51.20;;;;;;5096534;28;19916;-63
2022/01/14 16:05:37;;;;;;;;;;;9.30;51.80;;;;;;5103879;28;19932;-64
2022/01/14 16:08:03;;;;;;;;;;;9.00;51.50;;;;;;5073129;28;20255;-63
2022/01/14 16:10:28;;;;;;;;;;;8.80;52.30;;;;;;5086299;28;19974;-63
2022/01/14 16:12:57;;;;;;;;;;;8.50;53.50;;;;;;5072351;28;20015;-63
2022/01/14 16:15:23;;;;;;;;;;;8.30;54.00;;;;;;5086807;28;20296;-62
2022/01/14 16:17:49;;;;;;;;;;;7.90;56.20;;;;;;5074694;28;19912;-62
2022/01/14 16:20:16;;;;;;;;;;;7.50;57.60;;;;;;5074466;28;20000;-62
2022/01/14 16:24:08;;;;;;;;;;;7.30;58.70;;;;;;5110508;27;20002;-67
2022/01/14 16:26:33;;;;;;;;;;;7.00;60.30;;;;;;5101042;28;20396;-68
2022/01/14 16:28:59;;;;;;;;;;;6.90;60.50;;;;;;5106511;28;20296;-67
2022/01/14 16:31:24;;;;;;;;;;;6.90;60.80;;;;;;5109271;28;19913;-67
2022/01/14 16:33:50;;;;;;;;;;;6.80;61.30;;;;;;5107009;28;20212;-67
2022/01/14 16:36:16;;;;;;;;;;;6.80;61.80;;;;;;5093543;28;19912;-67
2022/01/14 16:38:41;;;;;;;;;;;6.80;61.30;;;;;;5090331;28;19915;-67
2022/01/14 16:41:07;;;;;;;;;;;6.80;61.50;;;;;;5089843;28;20363;-65
2022/01/14 16:49:41;;;;;;;;;;;6.80;61.80;;;;;;5142655;27;20290;-66
2022/01/14 16:52:07;;;;;;;;;;;6.50;63.00;;;;;;5110032;28;19965;-67